Terminal Aerodrome Forecast
Issued by NWS

Home | Current Version | Previous Version | Text Only | Print | Product List | Glossary On
Versions: 1 2 3 4 5 6 7 8 9 10 11 12 13 14
000
FTUS42 KTAE 101700
TAFECP
TAF
KECP 101720Z 1018/1118 24008KT P6SM VCTS SCT025CB BKN040
      TEMPO 1018/1020 3SM +TSRA OVC025CB
     FM110200 25004KT P6SM BKN100 OVC250
     FM111400 25007KT P6SM VCTS SCT030CB=

USA.gov is the U.S. government's official web portal to all federal, state and local government web resources and services.